Ray City, Georgia
Current Conditions -  °F | °C
As of 7:06 AM on Sunday 23 Nov 2014 (Local Time) from KVAD Reporting Station
Overcast Overcast  
Wind Chill: 64°   Ceiling: 600
Heat Index: 64°   Visibility: 10mi
Dew Point: 63°   Wind: 7mph
Humidity: 94%   Direction: 100°E
Pressure: 29.96"   Gusts: NA
Location:  31.07°N, 83.2°W
Report Text: KVAD 231206Z AUTO 10006KT 10SM OVC006 18/17 A2996 RMK AO2
Loading
Personal Weather Stations






























Interactive Weather Map New forecast layout! Learn more

10-Day Weather Forecast

Advertisements
Track Severe Weather on mobile